Time;durP1;ratioP1;P1;durP2;ratioP2;P2;SDS_P1;SDS_P2;PMS_P1;PMS_P2;Temp;Humidity;BMP_temperature;BMP_pressure;BME280_temperature;BME280_humidity;BME280_pressure;Samples;Min_cycle;Max_cycle;Signal;HPM_P1;HPM_P2
2021/01/12 00:00:44;;;;;;;19.93;10.80;;;-2.40;99.90;;;;;;5069548;28;20230;-76
2021/01/12 00:03:09;;;;;;;16.73;10.90;;;-2.40;99.90;;;;;;5070080;28;20209;-75
2021/01/12 00:05:35;;;;;;;14.27;8.90;;;-2.30;99.90;;;;;;5072589;28;20623;-75
2021/01/12 00:08:01;;;;;;;14.47;10.27;;;-2.20;99.90;;;;;;5064366;28;20617;-76
2021/01/12 00:10:26;;;;;;;16.33;10.30;;;-2.00;99.90;;;;;;5076280;28;20190;-76
2021/01/12 00:12:52;;;;;;;14.57;9.90;;;-2.00;99.90;;;;;;5081047;28;20190;-76
2021/01/12 00:15:18;;;;;;;15.35;10.27;;;-1.90;99.90;;;;;;5070464;28;20735;-76
2021/01/12 00:17:44;;;;;;;15.27;10.98;;;-1.90;99.90;;;;;;5073017;28;20542;-76
2021/01/12 00:20:11;;;;;;;18.43;9.80;;;-1.90;99.90;;;;;;5065846;28;20189;-75
2021/01/12 00:22:37;;;;;;;16.70;10.50;;;-1.80;99.90;;;;;;5060443;28;20183;-75
2021/01/12 00:25:06;;;;;;;16.35;10.25;;;-1.80;99.90;;;;;;5074085;28;20186;-76
2021/01/12 00:27:31;;;;;;;14.75;10.68;;;-1.70;99.90;;;;;;5070106;28;20272;-76
2021/01/12 00:29:57;;;;;;;18.10;10.40;;;-1.70;99.90;;;;;;5074245;28;20277;-75
2021/01/12 00:32:26;;;;;;;16.23;10.93;;;-1.70;99.90;;;;;;5070051;28;20272;-75
2021/01/12 00:34:52;;;;;;;15.90;11.02;;;-1.70;99.40;;;;;;5058684;28;20268;-76
2021/01/12 00:37:27;;;;;;;12.68;9.00;;;-1.70;99.20;;;;;;5070551;28;20204;-75
2021/01/12 00:39:54;;;;;;;16.42;10.50;;;-1.60;99.40;;;;;;5074463;28;20177;-75
2021/01/12 00:42:20;;;;;;;15.85;10.10;;;-1.60;99.60;;;;;;5069876;28;20190;-75
2021/01/12 00:44:46;;;;;;;18.92;10.43;;;-1.50;99.50;;;;;;5066365;28;20170;-76
2021/01/12 00:47:11;;;;;;;13.03;9.67;;;-1.40;99.10;;;;;;5058177;28;20237;-75
2021/01/12 00:49:37;;;;;;;16.30;10.07;;;-1.40;98.60;;;;;;5067404;28;20481;-76
2021/01/12 00:52:12;;;;;;;13.90;9.80;;;-1.40;98.40;;;;;;5069494;28;20194;-76
2021/01/12 00:54:38;;;;;;;16.35;10.20;;;-1.40;98.30;;;;;;5057736;28;20210;-75
2021/01/12 00:57:04;;;;;;;15.85;9.80;;;-1.50;98.30;;;;;;5060845;28;20186;-76
2021/01/12 00:59:30;;;;;;;15.35;9.10;;;-1.50;98.40;;;;;;5073213;28;20544;-76
2021/01/12 01:02:06;;;;;;;13.10;8.37;;;-1.50;98.50;;;;;;5069133;28;20229;-76
2021/01/12 01:04:31;;;;;;;13.25;9.35;;;-1.50;98.50;;;;;;5060676;28;20196;-76
2021/01/12 01:06:57;;;;;;;14.90;9.80;;;-1.50;98.80;;;;;;5069143;28;20725;-76
2021/01/12 01:09:23;;;;;;;14.97;10.70;;;-1.50;98.80;;;;;;5074018;28;20200;-76
2021/01/12 01:11:49;;;;;;;12.23;8.23;;;-1.40;99.00;;;;;;5073415;28;20265;-75
2021/01/12 01:14:17;;;;;;;18.17;9.18;;;-1.40;99.10;;;;;;5068413;28;20612;-76
2021/01/12 01:16:42;;;;;;;14.35;9.50;;;-1.30;99.00;;;;;;5068153;28;20186;-75
2021/01/12 01:19:09;;;;;;;14.57;10.23;;;-1.20;98.40;;;;;;5064681;28;20193;-75
2021/01/12 01:21:34;;;;;;;13.23;8.50;;;-1.10;98.20;;;;;;5068702;28;20523;-75
2021/01/12 01:24:00;;;;;;;16.37;8.93;;;-1.00;98.20;;;;;;5070097;28;20563;-75
2021/01/12 01:26:26;;;;;;;10.60;8.15;;;-0.90;98.20;;;;;;5062516;28;20182;-75
2021/01/12 01:28:52;;;;;;;11.53;9.23;;;-0.90;97.60;;;;;;5073362;28;20182;-75
2021/01/12 01:31:17;;;;;;;15.20;8.70;;;-0.80;97.60;;;;;;5072508;28;20201;-75
2021/01/12 01:33:45;;;;;;;12.00;8.93;;;-0.70;97.50;;;;;;5064106;28;20193;-75
2021/01/12 01:36:11;;;;;;;14.38;9.18;;;-0.60;97.20;;;;;;5062722;28;20620;-75
2021/01/12 01:38:37;;;;;;;11.90;7.83;;;-0.60;96.30;;;;;;5067436;28;20189;-75
2021/01/12 01:41:06;;;;;;;11.35;7.75;;;-0.50;96.50;;;;;;5068377;28;20182;-75
2021/01/12 01:43:32;;;;;;;12.38;8.82;;;-0.50;95.90;;;;;;5071927;28;20656;-75
2021/01/12 01:45:58;;;;;;;12.77;7.75;;;-0.50;95.80;;;;;;5067688;28;20303;-75
2021/01/12 01:48:24;;;;;;;9.57;7.80;;;-0.50;95.70;;;;;;5056315;28;20558;-75
2021/01/12 01:50:49;;;;;;;11.97;7.83;;;-0.40;95.60;;;;;;5071797;28;20186;-75
2021/01/12 01:53:15;;;;;;;10.93;7.80;;;-0.40;95.40;;;;;;5073058;28;20174;-75
2021/01/12 01:55:41;;;;;;;12.37;7.30;;;-0.40;95.20;;;;;;5067998;28;20541;-76
2021/01/12 01:58:07;;;;;;;10.27;7.00;;;-0.40;95.20;;;;;;5070535;28;20778;-75
2021/01/12 02:00:35;;;;;;;11.77;8.25;;;-0.40;95.10;;;;;;5070930;28;20182;-75
2021/01/12 02:03:06;;;;;;;10.93;7.43;;;-0.30;94.90;;;;;;5069283;28;20193;-75
2021/01/12 02:05:35;;;;;;;9.13;6.85;;;-0.30;94.90;;;;;;5064290;28;20202;-75
2021/01/12 02:08:11;;;;;;;10.63;7.65;;;-0.30;95.00;;;;;;5061989;28;20181;-76
2021/01/12 02:10:45;;;;;;;10.07;7.40;;;-0.40;95.30;;;;;;5072560;28;20623;-76
2021/01/12 02:13:15;;;;;;;10.55;7.20;;;-0.40;95.50;;;;;;5072558;28;20268;-75
2021/01/12 02:15:43;;;;;;;9.40;7.32;;;-0.40;95.60;;;;;;5070658;28;20704;-77
2021/01/12 02:18:11;;;;;;;11.23;6.45;;;-0.40;95.70;;;;;;5064019;28;20190;-75
2021/01/12 02:20:37;;;;;;;11.20;6.97;;;-0.50;95.80;;;;;;5072501;28;20186;-75
2021/01/12 02:23:08;;;;;;;9.80;7.60;;;-0.40;95.90;;;;;;5066958;28;20545;-76
2021/01/12 02:25:36;;;;;;;9.55;7.15;;;-0.30;95.80;;;;;;5065898;28;20587;-75
2021/01/12 02:28:05;;;;;;;9.43;6.95;;;-0.30;95.70;;;;;;5070589;28;20260;-76
2021/01/12 02:30:31;;;;;;;8.35;6.00;;;-0.20;95.80;;;;;;5072392;28;20189;-76
2021/01/12 02:32:56;;;;;;;10.53;6.40;;;-0.20;95.60;;;;;;5067784;28;20186;-76
2021/01/12 02:35:26;;;;;;;11.97;7.70;;;-0.10;95.40;;;;;;5072676;28;20233;-76
2021/01/12 02:37:52;;;;;;;8.57;6.43;;;-0.10;95.40;;;;;;5070910;28;20189;-75
2021/01/12 02:40:17;;;;;;;7.55;6.38;;;-0.10;95.10;;;;;;5072459;28;20274;-76
2021/01/12 02:42:44;;;;;;;8.77;5.17;;;-0.20;95.10;;;;;;5064569;28;20244;-75
2021/01/12 02:45:13;;;;;;;7.43;6.43;;;-0.20;95.20;;;;;;5052395;28;20170;-75
2021/01/12 02:47:39;;;;;;;8.90;6.30;;;-0.20;95.30;;;;;;5060679;28;20321;-75
2021/01/12 02:50:06;;;;;;;10.00;6.90;;;-0.20;95.40;;;;;;5067532;28;20264;-75
2021/01/12 02:52:31;;;;;;;9.20;6.50;;;-0.20;95.10;;;;;;5071574;28;20686;-75
2021/01/12 02:54:57;;;;;;;11.80;6.90;;;-0.10;95.20;;;;;;5067333;28;20281;-76
2021/01/12 02:57:22;;;;;;;9.97;6.73;;;-0.10;95.00;;;;;;5067306;28;20265;-75
2021/01/12 02:59:48;;;;;;;9.47;6.93;;;-0.10;95.00;;;;;;5071896;28;20250;-75
2021/01/12 03:02:13;;;;;;;8.30;5.80;;;-0.10;95.10;;;;;;5059774;28;20817;-77
2021/01/12 03:04:39;;;;;;;9.80;6.37;;;-0.10;95.00;;;;;;5065385;28;20182;-75
2021/01/12 03:07:04;;;;;;;9.27;6.03;;;0.00;95.00;;;;;;5067552;28;20220;-75
2021/01/12 03:09:30;;;;;;;6.67;5.20;;;0.00;94.80;;;;;;5072420;28;20174;-75
2021/01/12 03:11:55;;;;;;;7.80;6.43;;;0.00;94.80;;;;;;5071645;28;20296;-76
2021/01/12 03:14:21;;;;;;;7.17;5.63;;;0.00;94.90;;;;;;5068655;28;20257;-75
2021/01/12 03:16:47;;;;;;;8.48;5.82;;;0.00;95.10;;;;;;5066990;28;20188;-76
2021/01/12 03:19:13;;;;;;;8.07;5.80;;;0.10;95.00;;;;;;5061324;28;20540;-75
2021/01/12 03:21:39;;;;;;;6.17;5.30;;;0.10;94.90;;;;;;5065365;28;20193;-75
2021/01/12 03:24:06;;;;;;;8.07;5.13;;;0.20;94.70;;;;;;5053489;28;20185;-75
2021/01/12 03:26:31;;;;;;;7.63;5.10;;;0.20;94.80;;;;;;5068156;28;20433;-75
2021/01/12 03:28:57;;;;;;;9.00;5.63;;;0.30;94.40;;;;;;5058223;28;20197;-75
2021/01/12 03:31:23;;;;;;;9.50;5.80;;;0.50;94.40;;;;;;5067309;28;20205;-75
2021/01/12 03:33:48;;;;;;;8.93;5.77;;;0.40;94.10;;;;;;5071278;28;20194;-76
2021/01/12 03:36:14;;;;;;;7.47;5.23;;;0.40;94.20;;;;;;5066906;28;20300;-76
2021/01/12 03:38:39;;;;;;;5.73;4.53;;;0.40;94.20;;;;;;5071965;28;20208;-75
2021/01/12 03:41:05;;;;;;;8.47;5.53;;;0.40;94.10;;;;;;5070941;28;20190;-76
2021/01/12 03:43:30;;;;;;;8.00;5.37;;;0.50;94.20;;;;;;5067581;28;20236;-75
2021/01/12 03:45:56;;;;;;;6.60;5.07;;;0.50;94.00;;;;;;5064795;28;20605;-75
2021/01/12 03:48:21;;;;;;;6.47;5.17;;;0.50;94.20;;;;;;5062819;28;20206;-75
2021/01/12 03:50:48;;;;;;;10.97;5.63;;;0.40;94.10;;;;;;5073716;28;20182;-76
2021/01/12 03:53:15;;;;;;;7.18;4.65;;;0.40;94.20;;;;;;5068742;28;20182;-76
2021/01/12 03:55:41;;;;;;;8.65;5.28;;;0.40;94.20;;;;;;5064675;28;20599;-76
2021/01/12 03:58:06;;;;;;;6.73;5.13;;;0.40;94.50;;;;;;5067625;28;20188;-75
2021/01/12 04:00:32;;;;;;;7.53;5.33;;;0.40;94.70;;;;;;5073674;28;20256;-76
2021/01/12 04:02:57;;;;;;;7.43;5.00;;;0.40;94.80;;;;;;5067409;28;20217;-75
2021/01/12 04:05:23;;;;;;;8.00;5.70;;;0.50;94.70;;;;;;5073434;28;20356;-75
2021/01/12 04:07:48;;;;;;;8.17;5.40;;;0.50;94.40;;;;;;5062262;28;20182;-75
2021/01/12 04:10:14;;;;;;;7.07;4.70;;;0.50;94.80;;;;;;5074420;28;20193;-76
2021/01/12 04:12:39;;;;;;;6.70;4.73;;;0.50;94.80;;;;;;5074700;28;20182;-75
2021/01/12 04:15:07;;;;;;;6.10;5.10;;;0.50;94.90;;;;;;5063706;28;20626;-75
2021/01/12 04:17:32;;;;;;;8.43;5.43;;;0.50;95.10;;;;;;5067923;28;20617;-75
2021/01/12 04:19:58;;;;;;;8.53;5.50;;;0.60;95.10;;;;;;5069297;28;20268;-75
2021/01/12 04:22:23;;;;;;;6.63;4.20;;;0.60;95.40;;;;;;5074907;28;20590;-75
2021/01/12 04:24:49;;;;;;;7.67;5.97;;;0.60;95.40;;;;;;5068587;28;20200;-76
2021/01/12 04:27:15;;;;;;;7.00;5.33;;;0.60;95.40;;;;;;5068733;28;20216;-76
2021/01/12 04:29:41;;;;;;;7.20;5.63;;;0.60;95.60;;;;;;5074004;28;20424;-76
2021/01/12 04:32:06;;;;;;;7.43;5.47;;;0.60;95.30;;;;;;5069929;28;20186;-75
2021/01/12 04:34:32;;;;;;;8.90;5.30;;;0.60;95.20;;;;;;5063822;28;20261;-75
2021/01/12 04:36:57;;;;;;;8.03;5.23;;;0.70;95.40;;;;;;5063036;28;20642;-75
2021/01/12 04:39:23;;;;;;;7.23;4.97;;;0.70;95.40;;;;;;5072968;28;20705;-75
2021/01/12 04:41:48;;;;;;;7.47;4.70;;;0.70;95.30;;;;;;5074253;28;20272;-75
2021/01/12 04:44:14;;;;;;;8.37;5.40;;;0.70;95.40;;;;;;5069783;28;20186;-76
2021/01/12 04:46:40;;;;;;;8.00;6.27;;;0.70;95.30;;;;;;5076400;28;20827;-75
2021/01/12 04:49:05;;;;;;;5.40;4.80;;;0.70;95.30;;;;;;5060781;28;20224;-75
2021/01/12 04:51:31;;;;;;;10.73;6.03;;;0.70;95.30;;;;;;5074527;28;20196;-76
2021/01/12 04:53:56;;;;;;;8.90;5.67;;;0.60;95.50;;;;;;5074437;28;20705;-76
2021/01/12 04:56:23;;;;;;;9.10;6.13;;;0.70;95.40;;;;;;5072438;28;20351;-75
2021/01/12 04:58:51;;;;;;;8.60;5.15;;;0.70;95.20;;;;;;5069704;28;20192;-75
2021/01/12 05:01:18;;;;;;;10.10;6.45;;;0.70;95.10;;;;;;5067949;28;20222;-76
2021/01/12 05:03:50;;;;;;;9.25;6.93;;;0.70;94.80;;;;;;5074001;28;20212;-75
2021/01/12 05:06:17;;;;;;;11.27;7.50;;;0.70;94.70;;;;;;5069376;28;20174;-76
2021/01/12 05:08:45;;;;;;;9.88;5.75;;;0.70;94.80;;;;;;5074096;28;20190;-75
2021/01/12 05:11:12;;;;;;;9.38;6.63;;;0.70;94.60;;;;;;5069162;28;20177;-75
2021/01/12 05:13:43;;;;;;;9.05;6.00;;;0.70;94.90;;;;;;5059823;28;20672;-76
2021/01/12 05:16:09;;;;;;;7.10;5.80;;;0.70;94.90;;;;;;5067128;28;20575;-75
2021/01/12 05:18:42;;;;;;;6.53;5.35;;;0.70;94.90;;;;;;5065921;28;20537;-74
2021/01/12 05:21:10;;;;;;;11.95;7.35;;;0.70;95.00;;;;;;5073483;28;20291;-74
2021/01/12 05:23:52;;;;;;;8.70;6.15;;;0.70;95.20;;;;;;5069241;28;20178;-74
2021/01/12 05:26:20;;;;;;;7.22;5.75;;;0.70;95.50;;;;;;5071587;28;20462;-74
2021/01/12 05:28:46;;;;;;;7.55;5.53;;;0.60;95.60;;;;;;5068648;28;20261;-74
2021/01/12 05:31:13;;;;;;;10.05;8.02;;;0.70;95.90;;;;;;5072527;28;20299;-74
2021/01/12 05:33:40;;;;;;;6.55;5.22;;;0.70;96.30;;;;;;5073113;28;20245;-74
2021/01/12 05:36:06;;;;;;;9.40;5.90;;;0.70;96.70;;;;;;5069479;28;20218;-74
2021/01/12 05:38:32;;;;;;;8.25;6.03;;;0.70;96.90;;;;;;5084986;28;20184;-74
2021/01/12 05:41:02;;;;;;;7.03;4.43;;;0.70;97.20;;;;;;5076324;28;20194;-74
2021/01/12 05:43:46;;;;;;;8.25;5.43;;;0.70;97.60;;;;;;5089557;28;20715;-74
2021/01/12 05:46:14;;;;;;;9.88;5.55;;;0.70;98.00;;;;;;5066841;28;20513;-74
2021/01/12 05:48:41;;;;;;;10.13;6.35;;;0.70;98.20;;;;;;5055434;28;20207;-74
2021/01/12 05:51:09;;;;;;;9.13;5.40;;;0.70;98.50;;;;;;5056526;28;20182;-74
2021/01/12 05:53:47;;;;;;;8.68;6.03;;;0.70;98.70;;;;;;5066883;28;20189;-74
2021/01/12 05:56:19;;;;;;;8.05;6.03;;;0.80;99.10;;;;;;5054590;28;20226;-74
2021/01/12 05:58:49;;;;;;;7.10;5.00;;;0.80;99.40;;;;;;5072465;28;20182;-74
2021/01/12 06:01:30;;;;;;;10.70;7.10;;;0.80;99.70;;;;;;5070425;28;20240;-75
2021/01/12 06:03:57;;;;;;;6.70;4.80;;;0.80;99.90;;;;;;5067483;28;20189;-74
2021/01/12 06:06:23;;;;;;;7.05;4.63;;;0.90;99.90;;;;;;5067373;28;20186;-75
2021/01/12 06:08:52;;;;;;;7.45;5.30;;;0.90;99.90;;;;;;5083086;28;20525;-75
2021/01/12 06:11:18;;;;;;;7.35;6.45;;;0.90;99.90;;;;;;5081286;28;20187;-76
2021/01/12 06:13:56;;;;;;;8.65;5.55;;;1.00;99.90;;;;;;5066575;28;20178;-77
2021/01/12 06:16:23;;;;;;;7.28;5.80;;;1.00;99.90;;;;;;5066032;28;20225;-75
2021/01/12 06:19:12;;;;;;;8.55;5.97;;;1.00;99.90;;;;;;5068965;28;20189;-74
2021/01/12 06:21:55;;;;;;;9.45;6.13;;;1.00;99.90;;;;;;5061836;28;20593;-74
2021/01/12 06:24:37;;;;;;;9.75;5.63;;;1.00;99.80;;;;;;5072629;28;20259;-74
2021/01/12 06:27:09;;;;;;;6.10;5.30;;;1.10;99.70;;;;;;5067371;28;20258;-74
2021/01/12 06:29:35;;;;;;;7.75;5.40;;;1.00;99.60;;;;;;5066193;28;20182;-74
2021/01/12 06:32:00;;;;;;;7.63;5.27;;;1.00;99.80;;;;;;5053686;28;20197;-73
2021/01/12 06:34:26;;;;;;;7.07;5.77;;;1.00;99.90;;;;;;5064255;28;20181;-73
2021/01/12 06:36:54;;;;;;;4.97;4.43;;;1.00;99.90;;;;;;5068522;28;20277;-74
2021/01/12 06:39:22;;;;;;;7.75;4.70;;;1.10;99.90;;;;;;5092548;28;20177;-74
2021/01/12 06:41:49;;;;;;;5.80;4.20;;;1.10;99.90;;;;;;5077711;28;20268;-74
2021/01/12 06:44:26;;;;;;;7.13;4.97;;;1.10;99.90;;;;;;5061533;28;20208;-74
2021/01/12 06:46:54;;;;;;;6.80;5.40;;;1.10;99.90;;;;;;5065200;28;20181;-74
2021/01/12 06:49:24;;;;;;;6.35;4.32;;;1.10;99.90;;;;;;5063146;28;20174;-75
2021/01/12 06:52:02;;;;;;;4.85;3.95;;;1.20;99.90;;;;;;5059509;28;20186;-75
2021/01/12 06:54:32;;;;;;;6.72;4.97;;;1.20;99.90;;;;;;5065331;28;20252;-75
2021/01/12 06:57:04;;;;;;;6.40;4.95;;;1.20;99.90;;;;;;5063953;28;20565;-74
2021/01/12 06:59:45;;;;;;;7.60;5.50;;;1.20;99.90;;;;;;5066899;28;20181;-75
2021/01/12 07:02:24;;;;;;;7.97;5.10;;;1.20;99.90;;;;;;5057480;28;20230;-74
2021/01/12 07:05:06;;;;;;;6.40;5.22;;;1.20;99.90;;;;;;5060104;28;20182;-75
2021/01/12 07:07:52;;;;;;;5.97;4.90;;;1.20;99.90;;;;;;5069825;28;20193;-75
2021/01/12 07:10:20;;;;;;;7.10;5.30;;;1.30;99.90;;;;;;5071714;28;20185;-75
2021/01/12 07:12:46;;;;;;;8.85;5.40;;;1.30;99.90;;;;;;5075411;28;20260;-75
2021/01/12 07:15:15;;;;;;;6.93;5.30;;;1.30;99.90;;;;;;5070219;28;20197;-74
2021/01/12 07:17:45;;;;;;;18.83;11.15;;;1.30;99.90;;;;;;5078346;28;20183;-75
2021/01/12 07:20:14;;;;;;;6.53;4.85;;;1.30;99.90;;;;;;5073685;28;20611;-74
2021/01/12 07:22:57;;;;;;;5.75;4.70;;;1.40;99.90;;;;;;5069443;28;20186;-75
2021/01/12 07:25:25;;;;;;;8.95;6.40;;;1.40;99.90;;;;;;5067009;28;20174;-75
2021/01/12 07:27:59;;;;;;;7.93;4.65;;;1.40;99.90;;;;;;5070552;28;20614;-74
2021/01/12 07:30:25;;;;;;;7.82;4.90;;;1.50;99.90;;;;;;5071517;28;20236;-75
2021/01/12 07:32:56;;;;;;;7.80;4.68;;;1.50;99.90;;;;;;5071224;28;20182;-74
2021/01/12 07:35:22;;;;;;;7.18;5.10;;;1.50;99.90;;;;;;5074842;28;20217;-76
2021/01/12 07:37:48;;;;;;;8.53;5.70;;;1.50;99.90;;;;;;5071499;28;20178;-75
2021/01/12 07:40:14;;;;;;;7.83;4.93;;;1.50;99.90;;;;;;5075854;28;20260;-76
2021/01/12 07:43:05;;;;;;;5.13;3.83;;;1.50;99.90;;;;;;5065142;28;20523;-75
2021/01/12 07:45:34;;;;;;;7.30;4.93;;;1.60;99.90;;;;;;5064698;28;20448;-75
2021/01/12 07:48:02;;;;;;;6.05;4.72;;;1.70;99.90;;;;;;5072208;28;20682;-78
2021/01/12 07:50:29;;;;;;;7.95;5.22;;;1.70;99.90;;;;;;5065431;28;20264;-75
2021/01/12 07:52:56;;;;;;;6.45;5.00;;;1.70;99.90;;;;;;5063261;28;20233;-74
2021/01/12 07:55:23;;;;;;;5.07;4.57;;;1.70;99.90;;;;;;5070366;28;20711;-76
2021/01/12 07:57:49;;;;;;;7.22;4.60;;;1.70;99.90;;;;;;5063747;28;20198;-74
2021/01/12 08:00:16;;;;;;;6.97;5.55;;;1.70;99.90;;;;;;5074509;28;20185;-75
2021/01/12 08:02:53;;;;;;;8.77;4.78;;;1.70;99.90;;;;;;5072868;28;20217;-74
2021/01/12 08:05:26;;;;;;;6.82;5.18;;;1.80;99.90;;;;;;5065103;28;20652;-75
2021/01/12 08:08:06;;;;;;;6.28;5.20;;;1.80;99.90;;;;;;5071766;28;20186;-75
2021/01/12 08:10:34;;;;;;;9.60;5.60;;;1.80;99.90;;;;;;5074084;28;20207;-74
2021/01/12 08:13:26;;;;;;;5.80;4.70;;;1.80;99.90;;;;;;5065705;28;20220;-74
2021/01/12 08:15:51;;;;;;;7.22;4.75;;;1.90;99.90;;;;;;5065792;28;20280;-80
2021/01/12 08:18:21;;;;;;;9.83;5.20;;;1.90;99.90;;;;;;5064376;28;20183;-77
2021/01/12 08:20:47;;;;;;;7.43;5.00;;;1.90;99.90;;;;;;5056977;28;20188;-75
2021/01/12 08:23:19;;;;;;;7.95;4.90;;;2.00;99.90;;;;;;5063419;28;20270;-76
2021/01/12 08:25:45;;;;;;;6.10;4.60;;;2.00;99.90;;;;;;5073585;28;20185;-76
2021/01/12 08:28:11;;;;;;;7.78;4.35;;;2.00;99.90;;;;;;5072847;28;20276;-76
2021/01/12 08:30:38;;;;;;;6.90;4.37;;;2.10;99.90;;;;;;5073285;28;20358;-76
2021/01/12 08:33:22;;;;;;;7.55;4.72;;;2.00;99.90;;;;;;5071150;28;20186;-76
2021/01/12 08:36:05;;;;;;;5.57;4.60;;;2.10;99.90;;;;;;5072005;28;20326;-76
2021/01/12 08:38:32;;;;;;;4.25;3.83;;;2.10;99.90;;;;;;5074287;28;20233;-76
2021/01/12 08:40:59;;;;;;;4.60;4.20;;;2.20;99.90;;;;;;5072117;28;20617;-76
2021/01/12 08:43:29;;;;;;;6.43;4.70;;;2.20;99.90;;;;;;5061432;28;20598;-76
2021/01/12 08:46:02;;;;;;;5.28;4.07;;;2.20;99.90;;;;;;5067067;28;20190;-76
2021/01/12 08:48:28;;;;;;;5.45;4.07;;;2.20;99.90;;;;;;5063725;28;20259;-76
2021/01/12 08:50:54;;;;;;;6.40;4.67;;;2.20;99.90;;;;;;5065291;28;20283;-76
2021/01/12 08:53:27;;;;;;;5.73;4.80;;;2.20;99.90;;;;;;5072534;28;20428;-76
2021/01/12 08:56:06;;;;;;;4.55;3.92;;;2.20;99.90;;;;;;5067983;28;20222;-77
2021/01/12 08:58:32;;;;;;;4.85;4.00;;;2.30;99.90;;;;;;5065245;28;20239;-76
2021/01/12 09:00:59;;;;;;;6.60;4.37;;;2.30;99.90;;;;;;5067844;28;20217;-76
2021/01/12 09:03:25;;;;;;;5.72;4.38;;;2.40;99.90;;;;;;5062829;28;20216;-76
2021/01/12 09:05:53;;;;;;;4.90;4.23;;;2.30;99.90;;;;;;5068163;28;20178;-75
2021/01/12 09:08:21;;;;;;;4.93;3.65;;;2.40;99.90;;;;;;5073687;28;20426;-84
2021/01/12 09:10:47;;;;;;;8.32;5.30;;;2.40;99.90;;;;;;5072511;28;20589;-76
2021/01/12 09:13:13;;;;;;;6.90;4.80;;;2.40;99.90;;;;;;5071426;28;20265;-77
2021/01/12 09:15:41;;;;;;;4.18;3.60;;;2.40;99.90;;;;;;5055421;28;20480;-76
2021/01/12 09:18:09;;;;;;;6.05;4.40;;;2.60;99.90;;;;;;5054632;28;20178;-75
2021/01/12 09:20:38;;;;;;;4.60;3.65;;;2.50;99.90;;;;;;5065857;28;20185;-76
2021/01/12 09:23:07;;;;;;;5.32;3.67;;;2.50;99.90;;;;;;5069255;28;20186;-75
2021/01/12 09:25:33;;;;;;;6.28;3.63;;;2.60;99.90;;;;;;5065809;28;20186;-76
2021/01/12 09:28:13;;;;;;;4.28;3.67;;;2.60;99.90;;;;;;5070236;28;20185;-76
2021/01/12 09:30:40;;;;;;;5.45;3.92;;;2.60;99.90;;;;;;5068980;28;20175;-76
2021/01/12 09:33:06;;;;;;;4.10;3.25;;;2.60;99.90;;;;;;5058602;28;20191;-75
2021/01/12 09:35:32;;;;;;;4.33;3.33;;;2.60;99.90;;;;;;5069789;28;20221;-77
2021/01/12 09:38:02;;;;;;;4.97;3.57;;;2.70;99.90;;;;;;5068809;28;20706;-76
2021/01/12 09:40:28;;;;;;;4.80;3.17;;;2.80;99.90;;;;;;5072000;28;20261;-76
2021/01/12 09:42:53;;;;;;;4.80;3.78;;;2.80;99.90;;;;;;5068847;28;20184;-75
2021/01/12 09:45:19;;;;;;;4.67;3.57;;;2.80;99.90;;;;;;5062789;28;20198;-76
2021/01/12 09:47:45;;;;;;;7.37;4.30;;;2.80;99.90;;;;;;5053318;28;20634;-76
2021/01/12 09:50:12;;;;;;;5.50;3.60;;;2.80;99.90;;;;;;5064978;28;20243;-76
2021/01/12 09:52:38;;;;;;;2.97;2.67;;;2.90;99.90;;;;;;5069778;28;20192;-75
2021/01/12 09:55:04;;;;;;;3.40;2.80;;;2.90;99.90;;;;;;5058999;28;20229;-75
2021/01/12 09:57:30;;;;;;;3.55;2.38;;;2.90;99.90;;;;;;5068267;28;20179;-75
2021/01/12 09:59:55;;;;;;;2.63;2.43;;;2.90;99.90;;;;;;5072300;28;20623;-75
2021/01/12 10:02:21;;;;;;;3.00;2.70;;;2.90;99.90;;;;;;5069407;28;20277;-75
2021/01/12 10:04:46;;;;;;;8.77;7.80;;;2.90;99.90;;;;;;5067048;28;20668;-75
2021/01/12 10:07:12;;;;;;;2.90;2.70;;;2.80;99.90;;;;;;5068141;28;20729;-75
2021/01/12 10:09:38;;;;;;;3.20;2.90;;;2.90;99.90;;;;;;5072696;28;20259;-76
2021/01/12 10:12:04;;;;;;;3.20;2.90;;;2.80;99.90;;;;;;5067966;28;20216;-75
2021/01/12 10:14:30;;;;;;;2.78;2.55;;;2.80;99.90;;;;;;5060538;28;20634;-74
2021/01/12 10:16:56;;;;;;;3.43;2.30;;;2.80;99.90;;;;;;5052896;28;20210;-75
2021/01/12 10:19:21;;;;;;;2.60;2.33;;;2.70;99.90;;;;;;5057538;28;20227;-75
2021/01/12 10:21:50;;;;;;;2.90;2.60;;;2.70;99.90;;;;;;5072221;28;20794;-75
2021/01/12 10:24:16;;;;;;;3.95;3.65;;;2.60;99.90;;;;;;5068718;28;20189;-75
2021/01/12 10:26:43;;;;;;;3.53;2.63;;;2.60;99.90;;;;;;5072791;28;20174;-74
2021/01/12 10:29:08;;;;;;;4.10;3.78;;;2.50;99.90;;;;;;5071477;28;20178;-75
2021/01/12 10:31:34;;;;;;;3.53;2.60;;;2.50;99.90;;;;;;5071830;28;20655;-75
2021/01/12 10:34:00;;;;;;;1.77;1.60;;;2.50;99.90;;;;;;5067696;28;20181;-74
2021/01/12 10:36:25;;;;;;;2.37;2.17;;;2.40;99.90;;;;;;5063705;28;20600;-74
2021/01/12 10:38:51;;;;;;;2.57;2.37;;;2.30;99.90;;;;;;5071193;28;20174;-74
2021/01/12 10:41:16;;;;;;;5.43;2.00;;;2.30;99.90;;;;;;5072435;28;20201;-75
2021/01/12 10:43:43;;;;;;;1.93;1.80;;;2.30;99.90;;;;;;5071779;28;20189;-76
2021/01/12 10:46:10;;;;;;;3.03;2.65;;;2.30;99.90;;;;;;5067794;28;20641;-75
2021/01/12 10:48:36;;;;;;;3.13;2.83;;;2.30;99.90;;;;;;5072450;28;20247;-75
2021/01/12 10:51:01;;;;;;;2.10;1.90;;;2.30;99.90;;;;;;5070305;28;20217;-74
2021/01/12 10:53:27;;;;;;;2.27;2.00;;;2.30;99.90;;;;;;5070684;28;20190;-75
2021/01/12 10:55:53;;;;;;;2.40;2.20;;;2.30;99.90;;;;;;5056240;28;20218;-75
2021/01/12 10:58:18;;;;;;;4.93;4.13;;;2.40;99.90;;;;;;5072293;28;20243;-75
2021/01/12 11:00:46;;;;;;;2.87;2.70;;;2.30;99.90;;;;;;5072051;28;20468;-74
2021/01/12 11:03:12;;;;;;;2.03;1.88;;;2.30;99.90;;;;;;5071047;28;20272;-74
2021/01/12 11:05:37;;;;;;;1.43;1.33;;;2.30;99.90;;;;;;5083537;28;20221;-75
2021/01/12 11:08:03;;;;;;;1.80;1.70;;;2.30;99.90;;;;;;5064887;28;20642;-74
2021/01/12 11:10:29;;;;;;;1.90;1.70;;;2.30;99.90;;;;;;5072120;28;20563;-75
2021/01/12 11:12:56;;;;;;;2.95;2.58;;;2.40;99.90;;;;;;5072323;28;20175;-74
2021/01/12 11:15:22;;;;;;;1.50;1.27;;;2.40;99.90;;;;;;5063387;28;20213;-75
2021/01/12 11:17:47;;;;;;;3.10;2.50;;;2.30;99.90;;;;;;5064824;28;20208;-75
2021/01/12 11:20:13;;;;;;;1.53;1.37;;;2.40;99.90;;;;;;5059118;28;20210;-74
2021/01/12 11:22:40;;;;;;;1.17;1.10;;;2.40;99.90;;;;;;5064320;28;20178;-74
2021/01/12 11:25:06;;;;;;;1.20;1.10;;;2.50;99.90;;;;;;5070831;28;20549;-74
2021/01/12 11:27:33;;;;;;;1.45;1.30;;;2.40;99.90;;;;;;5059563;28;20214;-76
2021/01/12 11:29:59;;;;;;;1.83;1.70;;;2.40;99.90;;;;;;5066350;28;20738;-74
2021/01/12 11:32:25;;;;;;;1.70;1.60;;;2.30;99.90;;;;;;5065563;28;20211;-75
2021/01/12 11:34:50;;;;;;;1.60;1.50;;;2.30;99.90;;;;;;5069337;28;20490;-75
2021/01/12 11:37:16;;;;;;;1.90;1.80;;;2.30;99.90;;;;;;5067194;28;20875;-75
2021/01/12 11:39:42;;;;;;;1.53;1.43;;;2.30;99.90;;;;;;5071678;28;20688;-75
2021/01/12 11:42:13;;;;;;;2.20;2.00;;;2.30;99.90;;;;;;5071323;28;20440;-75
2021/01/12 11:44:40;;;;;;;1.50;1.05;;;2.20;99.90;;;;;;5069976;28;20254;-74
2021/01/12 11:47:06;;;;;;;1.30;1.20;;;2.20;99.90;;;;;;5059173;28;20178;-75
2021/01/12 11:49:32;;;;;;;1.40;1.30;;;2.30;99.90;;;;;;5057310;28;20178;-75
2021/01/12 11:51:58;;;;;;;1.70;1.60;;;2.30;99.90;;;;;;5064577;28;20894;-74
2021/01/12 11:54:24;;;;;;;1.60;1.50;;;2.30;99.90;;;;;;5064443;28;20228;-74
2021/01/12 11:56:56;;;;;;;1.53;1.43;;;2.40;99.90;;;;;;5066402;28;20213;-74
2021/01/12 11:59:24;;;;;;;3.65;2.15;;;2.40;99.90;;;;;;5066218;28;20189;-75
2021/01/12 12:01:52;;;;;;;2.63;2.42;;;2.40;99.90;;;;;;5056872;28;20317;-74
2021/01/12 12:04:18;;;;;;;1.73;1.60;;;2.40;99.90;;;;;;5066083;28;20235;-74
2021/01/12 12:06:49;;;;;;;1.60;1.50;;;2.50;99.90;;;;;;5070401;28;20273;-74
2021/01/12 12:09:14;;;;;;;1.70;1.60;;;2.50;99.90;;;;;;5074874;28;20190;-75
2021/01/12 12:11:40;;;;;;;1.87;1.57;;;2.50;99.90;;;;;;5073798;28;20181;-75
2021/01/12 12:14:07;;;;;;;1.33;1.23;;;2.40;99.90;;;;;;5069767;28;20269;-74
2021/01/12 12:16:34;;;;;;;3.17;1.80;;;2.40;99.90;;;;;;5067451;28;20211;-74
2021/01/12 12:19:00;;;;;;;1.95;1.63;;;2.40;99.90;;;;;;5060305;28;20182;-74
2021/01/12 12:21:26;;;;;;;1.67;1.58;;;2.30;99.90;;;;;;5064151;28;20225;-75
2021/01/12 12:23:51;;;;;;;1.77;1.67;;;2.30;99.90;;;;;;5067644;28;20221;-74
2021/01/12 12:26:17;;;;;;;2.10;1.90;;;2.30;99.90;;;;;;5071289;28;20388;-76
2021/01/12 12:28:43;;;;;;;1.17;1.17;;;2.30;99.90;;;;;;5070219;28;20492;-75
2021/01/12 12:31:09;;;;;;;2.03;1.77;;;2.30;99.90;;;;;;5062570;28;20187;-74
2021/01/12 12:33:35;;;;;;;1.40;1.30;;;2.40;99.90;;;;;;5065348;28;20649;-74
2021/01/12 12:36:08;;;;;;;1.38;1.20;;;2.40;99.90;;;;;;5068020;28;20566;-74
2021/01/12 12:38:40;;;;;;;1.85;1.67;;;2.40;99.90;;;;;;5070722;28;20547;-75
2021/01/12 12:41:10;;;;;;;1.38;1.13;;;2.50;99.90;;;;;;5074541;28;20205;-74
2021/01/12 12:43:36;;;;;;;1.83;1.70;;;2.50;99.90;;;;;;5069506;28;20174;-74
2021/01/12 12:46:03;;;;;;;2.03;1.70;;;2.50;99.90;;;;;;5065484;28;20626;-74
2021/01/12 12:48:28;;;;;;;1.58;1.35;;;2.50;99.90;;;;;;5067514;28;20427;-74
2021/01/12 12:50:55;;;;;;;2.40;2.20;;;2.50;99.90;;;;;;5065225;28;20197;-74
2021/01/12 12:53:21;;;;;;;2.15;1.80;;;2.60;99.90;;;;;;5067082;28;20679;-74
2021/01/12 12:55:47;;;;;;;2.05;1.92;;;2.60;99.90;;;;;;5070328;28;20209;-75